sensor_id;sensor_type;location;lat;lon;timestamp;P1;durP1;ratioP1;P2;durP2;ratioP2
75818;SDS011;64453;51.944;9.796;2024-02-15T00:00:51;2.13;;;2.03;;
75818;SDS011;64453;51.944;9.796;2024-02-15T00:03:19;2.03;;;1.93;;
75818;SDS011;64453;51.944;9.796;2024-02-15T00:05:46;2.83;;;2.70;;
75818;SDS011;64453;51.944;9.796;2024-02-15T00:08:13;3.17;;;2.53;;
75818;SDS011;64453;51.944;9.796;2024-02-15T00:10:45;3.80;;;3.50;;
75818;SDS011;64453;51.944;9.796;2024-02-15T00:13:12;3.57;;;3.37;;
75818;SDS011;64453;51.944;9.796;2024-02-15T00:15:42;3.13;;;2.90;;
75818;SDS011;64453;51.944;9.796;2024-02-15T00:18:09;2.93;;;2.77;;
75818;SDS011;64453;51.944;9.796;2024-02-15T00:20:36;3.77;;;2.60;;
75818;SDS011;64453;51.944;9.796;2024-02-15T00:23:04;3.10;;;2.90;;
75818;SDS011;64453;51.944;9.796;2024-02-15T00:25:31;2.97;;;2.77;;
75818;SDS011;64453;51.944;9.796;2024-02-15T00:28:00;3.00;;;2.80;;
75818;SDS011;64453;51.944;9.796;2024-02-15T00:30:27;2.50;;;2.40;;
75818;SDS011;64453;51.944;9.796;2024-02-15T00:32:55;3.00;;;2.80;;
75818;SDS011;64453;51.944;9.796;2024-02-15T00:35:22;2.63;;;2.47;;
75818;SDS011;64453;51.944;9.796;2024-02-15T00:37:49;2.60;;;2.50;;
75818;SDS011;64453;51.944;9.796;2024-02-15T00:40:17;2.33;;;2.23;;
75818;SDS011;64453;51.944;9.796;2024-02-15T00:42:44;2.67;;;2.47;;
75818;SDS011;64453;51.944;9.796;2024-02-15T00:45:12;2.77;;;2.30;;
75818;SDS011;64453;51.944;9.796;2024-02-15T00:47:39;2.20;;;2.10;;
75818;SDS011;64453;51.944;9.796;2024-02-15T00:50:09;2.80;;;2.60;;
75818;SDS011;64453;51.944;9.796;2024-02-15T00:52:36;2.53;;;2.43;;
75818;SDS011;64453;51.944;9.796;2024-02-15T00:55:03;2.70;;;2.50;;
75818;SDS011;64453;51.944;9.796;2024-02-15T00:57:31;2.70;;;2.50;;
75818;SDS011;64453;51.944;9.796;2024-02-15T00:59:57;2.77;;;2.57;;
75818;SDS011;64453;51.944;9.796;2024-02-15T01:02:25;2.40;;;2.30;;
75818;SDS011;64453;51.944;9.796;2024-02-15T01:04:53;3.20;;;2.90;;
75818;SDS011;64453;51.944;9.796;2024-02-15T01:07:25;3.40;;;3.10;;
75818;SDS011;64453;51.944;9.796;2024-02-15T01:09:53;3.40;;;3.17;;
75818;SDS011;64453;51.944;9.796;2024-02-15T01:12:20;3.40;;;3.10;;
75818;SDS011;64453;51.944;9.796;2024-02-15T01:14:47;4.03;;;3.70;;
75818;SDS011;64453;51.944;9.796;2024-02-15T01:17:14;4.10;;;3.80;;
75818;SDS011;64453;51.944;9.796;2024-02-15T01:19:42;4.80;;;4.23;;
75818;SDS011;64453;51.944;9.796;2024-02-15T01:22:10;4.63;;;4.23;;
75818;SDS011;64453;51.944;9.796;2024-02-15T01:24:39;4.43;;;4.10;;
75818;SDS011;64453;51.944;9.796;2024-02-15T01:27:08;5.57;;;4.67;;
75818;SDS011;64453;51.944;9.796;2024-02-15T01:29:35;4.87;;;4.47;;
75818;SDS011;64453;51.944;9.796;2024-02-15T01:32:02;4.33;;;4.03;;
75818;SDS011;64453;51.944;9.796;2024-02-15T01:34:30;4.30;;;3.97;;
75818;SDS011;64453;51.944;9.796;2024-02-15T01:36:58;3.87;;;3.57;;
75818;SDS011;64453;51.944;9.796;2024-02-15T01:39:25;3.70;;;3.43;;
75818;SDS011;64453;51.944;9.796;2024-02-15T01:41:54;3.43;;;3.23;;
75818;SDS011;64453;51.944;9.796;2024-02-15T01:44:21;5.03;;;4.10;;
75818;SDS011;64453;51.944;9.796;2024-02-15T01:46:50;3.27;;;3.07;;
75818;SDS011;64453;51.944;9.796;2024-02-15T01:49:20;3.40;;;3.10;;
75818;SDS011;64453;51.944;9.796;2024-02-15T01:51:48;3.07;;;2.87;;
75818;SDS011;64453;51.944;9.796;2024-02-15T01:54:18;3.27;;;3.07;;
75818;SDS011;64453;51.944;9.796;2024-02-15T01:56:45;3.23;;;3.00;;
75818;SDS011;64453;51.944;9.796;2024-02-15T01:59:15;3.60;;;3.30;;
75818;SDS011;64453;51.944;9.796;2024-02-15T02:01:44;3.33;;;2.93;;
75818;SDS011;64453;51.944;9.796;2024-02-15T02:04:11;3.17;;;2.97;;
75818;SDS011;64453;51.944;9.796;2024-02-15T02:06:39;3.70;;;3.40;;
75818;SDS011;64453;51.944;9.796;2024-02-15T02:09:06;3.60;;;3.30;;
75818;SDS011;64453;51.944;9.796;2024-02-15T02:11:39;3.50;;;3.20;;
75818;SDS011;64453;51.944;9.796;2024-02-15T02:14:06;2.70;;;2.50;;
75818;SDS011;64453;51.944;9.796;2024-02-15T02:16:35;2.77;;;2.67;;
75818;SDS011;64453;51.944;9.796;2024-02-15T02:19:03;2.77;;;2.57;;
75818;SDS011;64453;51.944;9.796;2024-02-15T02:21:33;2.63;;;2.43;;
75818;SDS011;64453;51.944;9.796;2024-02-15T02:24:00;2.87;;;2.67;;
75818;SDS011;64453;51.944;9.796;2024-02-15T02:26:34;2.63;;;2.53;;
75818;SDS011;64453;51.944;9.796;2024-02-15T02:29:01;2.23;;;2.13;;
75818;SDS011;64453;51.944;9.796;2024-02-15T02:31:32;2.80;;;2.60;;
75818;SDS011;64453;51.944;9.796;2024-02-15T02:34:00;3.03;;;2.70;;
75818;SDS011;64453;51.944;9.796;2024-02-15T02:36:28;2.80;;;2.70;;
75818;SDS011;64453;51.944;9.796;2024-02-15T02:38:55;3.03;;;2.83;;
75818;SDS011;64453;51.944;9.796;2024-02-15T02:41:25;2.60;;;2.50;;
75818;SDS011;64453;51.944;9.796;2024-02-15T02:43:56;2.37;;;2.27;;
75818;SDS011;64453;51.944;9.796;2024-02-15T02:46:23;2.60;;;2.50;;
75818;SDS011;64453;51.944;9.796;2024-02-15T02:48:51;2.50;;;2.40;;
75818;SDS011;64453;51.944;9.796;2024-02-15T02:51:26;2.33;;;2.23;;
75818;SDS011;64453;51.944;9.796;2024-02-15T02:53:53;2.47;;;2.37;;
75818;SDS011;64453;51.944;9.796;2024-02-15T02:56:20;2.23;;;2.13;;
75818;SDS011;64453;51.944;9.796;2024-02-15T02:58:47;1.80;;;1.73;;
75818;SDS011;64453;51.944;9.796;2024-02-15T03:01:15;2.37;;;2.27;;
75818;SDS011;64453;51.944;9.796;2024-02-15T03:03:42;1.80;;;1.70;;
75818;SDS011;64453;51.944;9.796;2024-02-15T03:06:09;2.33;;;2.23;;
75818;SDS011;64453;51.944;9.796;2024-02-15T03:08:36;2.10;;;2.00;;
75818;SDS011;64453;51.944;9.796;2024-02-15T03:11:03;2.37;;;2.27;;
75818;SDS011;64453;51.944;9.796;2024-02-15T03:13:30;1.87;;;1.77;;
75818;SDS011;64453;51.944;9.796;2024-02-15T03:15:58;1.60;;;1.60;;
75818;SDS011;64453;51.944;9.796;2024-02-15T03:18:26;1.70;;;1.70;;
75818;SDS011;64453;51.944;9.796;2024-02-15T03:20:54;1.60;;;1.50;;
75818;SDS011;64453;51.944;9.796;2024-02-15T03:23:21;1.60;;;1.60;;
75818;SDS011;64453;51.944;9.796;2024-02-15T03:25:48;2.23;;;2.13;;
75818;SDS011;64453;51.944;9.796;2024-02-15T03:28:16;2.10;;;2.00;;
75818;SDS011;64453;51.944;9.796;2024-02-15T03:30:44;2.10;;;2.00;;
75818;SDS011;64453;51.944;9.796;2024-02-15T03:33:11;1.97;;;1.87;;
75818;SDS011;64453;51.944;9.796;2024-02-15T03:35:40;2.23;;;2.13;;
75818;SDS011;64453;51.944;9.796;2024-02-15T03:38:07;2.57;;;2.23;;
75818;SDS011;64453;51.944;9.796;2024-02-15T03:40:34;2.50;;;2.40;;
75818;SDS011;64453;51.944;9.796;2024-02-15T03:43:02;1.83;;;1.73;;
75818;SDS011;64453;51.944;9.796;2024-02-15T03:45:32;1.70;;;1.70;;
75818;SDS011;64453;51.944;9.796;2024-02-15T03:47:58;2.37;;;2.17;;
75818;SDS011;64453;51.944;9.796;2024-02-15T03:50:25;2.13;;;2.03;;
75818;SDS011;64453;51.944;9.796;2024-02-15T03:52:55;1.50;;;1.50;;
75818;SDS011;64453;51.944;9.796;2024-02-15T03:55:25;3.37;;;1.90;;
75818;SDS011;64453;51.944;9.796;2024-02-15T03:57:52;1.80;;;1.70;;
75818;SDS011;64453;51.944;9.796;2024-02-15T04:00:21;2.70;;;1.53;;
75818;SDS011;64453;51.944;9.796;2024-02-15T04:02:50;1.50;;;1.50;;
75818;SDS011;64453;51.944;9.796;2024-02-15T04:05:17;1.57;;;1.47;;
75818;SDS011;64453;51.944;9.796;2024-02-15T04:07:46;1.60;;;1.50;;
75818;SDS011;64453;51.944;9.796;2024-02-15T04:10:15;1.93;;;1.83;;
75818;SDS011;64453;51.944;9.796;2024-02-15T04:12:43;1.50;;;1.50;;
75818;SDS011;64453;51.944;9.796;2024-02-15T04:15:10;1.43;;;1.43;;
75818;SDS011;64453;51.944;9.796;2024-02-15T04:17:39;2.23;;;2.13;;
75818;SDS011;64453;51.944;9.796;2024-02-15T04:20:06;1.63;;;1.63;;
75818;SDS011;64453;51.944;9.796;2024-02-15T04:22:35;1.97;;;1.80;;
75818;SDS011;64453;51.944;9.796;2024-02-15T04:25:03;1.57;;;1.57;;
75818;SDS011;64453;51.944;9.796;2024-02-15T04:27:34;1.77;;;1.70;;
75818;SDS011;64453;51.944;9.796;2024-02-15T04:30:01;1.70;;;1.60;;
75818;SDS011;64453;51.944;9.796;2024-02-15T04:32:29;1.47;;;1.47;;
75818;SDS011;64453;51.944;9.796;2024-02-15T04:34:58;1.70;;;1.60;;
75818;SDS011;64453;51.944;9.796;2024-02-15T04:37:26;1.90;;;1.50;;
75818;SDS011;64453;51.944;9.796;2024-02-15T04:39:57;1.93;;;1.83;;
75818;SDS011;64453;51.944;9.796;2024-02-15T04:42:24;1.43;;;1.40;;
75818;SDS011;64453;51.944;9.796;2024-02-15T04:44:55;1.47;;;1.47;;
75818;SDS011;64453;51.944;9.796;2024-02-15T04:47:21;2.07;;;1.97;;
75818;SDS011;64453;51.944;9.796;2024-02-15T04:49:48;1.90;;;1.80;;
75818;SDS011;64453;51.944;9.796;2024-02-15T04:52:17;1.70;;;1.70;;
75818;SDS011;64453;51.944;9.796;2024-02-15T04:54:43;1.50;;;1.40;;
75818;SDS011;64453;51.944;9.796;2024-02-15T04:57:10;1.77;;;1.70;;
75818;SDS011;64453;51.944;9.796;2024-02-15T04:59:38;4.73;;;1.73;;
75818;SDS011;64453;51.944;9.796;2024-02-15T05:02:06;1.80;;;1.70;;
75818;SDS011;64453;51.944;9.796;2024-02-15T05:04:34;2.20;;;2.10;;
75818;SDS011;64453;51.944;9.796;2024-02-15T05:07:01;1.70;;;1.63;;
75818;SDS011;64453;51.944;9.796;2024-02-15T05:09:29;1.50;;;1.40;;
75818;SDS011;64453;51.944;9.796;2024-02-15T05:11:59;1.73;;;1.63;;
75818;SDS011;64453;51.944;9.796;2024-02-15T05:14:27;1.73;;;1.63;;
75818;SDS011;64453;51.944;9.796;2024-02-15T05:16:54;2.77;;;1.47;;
75818;SDS011;64453;51.944;9.796;2024-02-15T05:19:24;2.73;;;1.80;;
75818;SDS011;64453;51.944;9.796;2024-02-15T05:21:51;1.57;;;1.57;;
75818;SDS011;64453;51.944;9.796;2024-02-15T05:24:20;2.00;;;1.90;;
75818;SDS011;64453;51.944;9.796;2024-02-15T05:26:48;2.17;;;2.07;;
75818;SDS011;64453;51.944;9.796;2024-02-15T05:29:15;2.10;;;2.00;;
75818;SDS011;64453;51.944;9.796;2024-02-15T05:31:42;2.10;;;2.00;;
75818;SDS011;64453;51.944;9.796;2024-02-15T05:34:10;1.60;;;1.60;;
75818;SDS011;64453;51.944;9.796;2024-02-15T05:36:40;2.43;;;2.10;;
75818;SDS011;64453;51.944;9.796;2024-02-15T05:39:07;3.33;;;1.80;;
75818;SDS011;64453;51.944;9.796;2024-02-15T05:41:36;2.00;;;1.90;;
75818;SDS011;64453;51.944;9.796;2024-02-15T05:44:05;6.83;;;2.00;;
75818;SDS011;64453;51.944;9.796;2024-02-15T05:46:33;2.10;;;2.00;;
75818;SDS011;64453;51.944;9.796;2024-02-15T05:49:03;2.40;;;2.30;;
75818;SDS011;64453;51.944;9.796;2024-02-15T05:51:32;2.27;;;2.00;;
75818;SDS011;64453;51.944;9.796;2024-02-15T05:54:01;2.47;;;2.37;;
75818;SDS011;64453;51.944;9.796;2024-02-15T05:56:29;2.00;;;1.90;;
75818;SDS011;64453;51.944;9.796;2024-02-15T05:58:55;2.43;;;2.30;;
75818;SDS011;64453;51.944;9.796;2024-02-15T06:01:23;3.00;;;2.80;;
75818;SDS011;64453;51.944;9.796;2024-02-15T06:03:54;3.23;;;3.03;;
75818;SDS011;64453;51.944;9.796;2024-02-15T06:06:21;2.97;;;2.60;;
75818;SDS011;64453;51.944;9.796;2024-02-15T06:08:48;3.50;;;3.20;;
75818;SDS011;64453;51.944;9.796;2024-02-15T06:11:20;3.47;;;3.17;;
75818;SDS011;64453;51.944;9.796;2024-02-15T06:13:47;3.47;;;3.20;;
75818;SDS011;64453;51.944;9.796;2024-02-15T06:16:14;4.30;;;3.97;;
75818;SDS011;64453;51.944;9.796;2024-02-15T06:18:41;6.30;;;5.57;;
75818;SDS011;64453;51.944;9.796;2024-02-15T06:21:08;8.47;;;6.77;;
75818;SDS011;64453;51.944;9.796;2024-02-15T06:23:35;5.73;;;5.13;;
75818;SDS011;64453;51.944;9.796;2024-02-15T06:26:02;4.57;;;4.17;;
75818;SDS011;64453;51.944;9.796;2024-02-15T06:28:31;4.87;;;4.47;;
75818;SDS011;64453;51.944;9.796;2024-02-15T06:31:16;4.40;;;4.00;;
75818;SDS011;64453;51.944;9.796;2024-02-15T06:34:01;3.50;;;3.20;;
75818;SDS011;64453;51.944;9.796;2024-02-15T06:36:47;3.10;;;2.90;;
75818;SDS011;64453;51.944;9.796;2024-02-15T06:39:35;2.97;;;2.77;;
75818;SDS011;64453;51.944;9.796;2024-02-15T06:42:10;3.37;;;3.17;;
75818;SDS011;64453;51.944;9.796;2024-02-15T06:44:42;2.93;;;2.73;;
75818;SDS011;64453;51.944;9.796;2024-02-15T06:47:10;2.90;;;2.60;;
75818;SDS011;64453;51.944;9.796;2024-02-15T06:49:37;3.70;;;3.40;;
75818;SDS011;64453;51.944;9.796;2024-02-15T06:52:06;3.50;;;3.20;;
75818;SDS011;64453;51.944;9.796;2024-02-15T06:54:33;5.00;;;3.00;;
75818;SDS011;64453;51.944;9.796;2024-02-15T06:57:01;3.53;;;3.30;;
75818;SDS011;64453;51.944;9.796;2024-02-15T06:59:30;3.30;;;3.00;;
75818;SDS011;64453;51.944;9.796;2024-02-15T07:01:59;5.83;;;3.20;;
75818;SDS011;64453;51.944;9.796;2024-02-15T07:04:27;3.87;;;3.57;;
75818;SDS011;64453;51.944;9.796;2024-02-15T07:06:54;4.00;;;3.70;;
75818;SDS011;64453;51.944;9.796;2024-02-15T07:09:22;3.10;;;2.90;;
75818;SDS011;64453;51.944;9.796;2024-02-15T07:11:49;2.93;;;2.73;;
75818;SDS011;64453;51.944;9.796;2024-02-15T07:14:16;3.30;;;3.10;;
75818;SDS011;64453;51.944;9.796;2024-02-15T07:16:46;2.80;;;2.60;;
75818;SDS011;64453;51.944;9.796;2024-02-15T07:19:16;1.93;;;1.83;;
75818;SDS011;64453;51.944;9.796;2024-02-15T07:21:43;3.63;;;2.47;;
75818;SDS011;64453;51.944;9.796;2024-02-15T07:24:12;2.43;;;2.33;;
75818;SDS011;64453;51.944;9.796;2024-02-15T07:26:39;2.10;;;2.00;;
75818;SDS011;64453;51.944;9.796;2024-02-15T07:29:08;2.07;;;1.90;;
75818;SDS011;64453;51.944;9.796;2024-02-15T07:31:36;1.80;;;1.70;;
75818;SDS011;64453;51.944;9.796;2024-02-15T07:34:03;4.47;;;1.80;;
75818;SDS011;64453;51.944;9.796;2024-02-15T07:36:32;1.60;;;1.50;;
75818;SDS011;64453;51.944;9.796;2024-02-15T07:38:59;1.37;;;1.37;;
75818;SDS011;64453;51.944;9.796;2024-02-15T07:41:28;1.93;;;1.83;;
75818;SDS011;64453;51.944;9.796;2024-02-15T07:43:56;2.13;;;1.83;;
75818;SDS011;64453;51.944;9.796;2024-02-15T07:46:23;6.03;;;1.70;;
75818;SDS011;64453;51.944;9.796;2024-02-15T07:48:51;2.70;;;2.00;;
75818;SDS011;64453;51.944;9.796;2024-02-15T07:51:18;2.30;;;2.20;;
75818;SDS011;64453;51.944;9.796;2024-02-15T07:53:48;1.80;;;1.70;;
75818;SDS011;64453;51.944;9.796;2024-02-15T07:56:17;2.07;;;1.83;;
75818;SDS011;64453;51.944;9.796;2024-02-15T07:58:45;2.10;;;1.83;;
75818;SDS011;64453;51.944;9.796;2024-02-15T08:01:17;2.37;;;2.27;;
75818;SDS011;64453;51.944;9.796;2024-02-15T08:03:45;3.57;;;2.40;;
75818;SDS011;64453;51.944;9.796;2024-02-15T08:06:13;2.23;;;2.13;;
75818;SDS011;64453;51.944;9.796;2024-02-15T08:08:42;1.80;;;1.70;;
75818;SDS011;64453;51.944;9.796;2024-02-15T08:11:12;2.50;;;2.40;;
75818;SDS011;64453;51.944;9.796;2024-02-15T08:13:42;2.97;;;2.67;;
75818;SDS011;64453;51.944;9.796;2024-02-15T08:16:10;2.30;;;2.20;;
75818;SDS011;64453;51.944;9.796;2024-02-15T08:18:37;2.40;;;2.30;;
75818;SDS011;64453;51.944;9.796;2024-02-15T08:21:05;2.63;;;2.43;;
75818;SDS011;64453;51.944;9.796;2024-02-15T08:23:32;2.30;;;2.20;;
75818;SDS011;64453;51.944;9.796;2024-02-15T08:25:59;2.53;;;2.33;;
75818;SDS011;64453;51.944;9.796;2024-02-15T08:28:27;2.40;;;2.27;;
75818;SDS011;64453;51.944;9.796;2024-02-15T08:30:54;4.73;;;2.77;;
75818;SDS011;64453;51.944;9.796;2024-02-15T08:33:22;2.90;;;2.70;;
75818;SDS011;64453;51.944;9.796;2024-02-15T08:35:53;3.17;;;2.87;;
75818;SDS011;64453;51.944;9.796;2024-02-15T08:38:20;2.80;;;2.60;;
75818;SDS011;64453;51.944;9.796;2024-02-15T08:40:52;2.63;;;2.43;;
75818;SDS011;64453;51.944;9.796;2024-02-15T08:43:19;2.90;;;2.70;;
75818;SDS011;64453;51.944;9.796;2024-02-15T08:45:47;4.20;;;3.80;;
75818;SDS011;64453;51.944;9.796;2024-02-15T08:48:15;3.63;;;3.33;;
75818;SDS011;64453;51.944;9.796;2024-02-15T08:50:43;3.00;;;2.80;;
75818;SDS011;64453;51.944;9.796;2024-02-15T08:53:10;3.70;;;3.40;;
75818;SDS011;64453;51.944;9.796;2024-02-15T08:55:37;3.57;;;3.27;;
75818;SDS011;64453;51.944;9.796;2024-02-15T08:58:04;2.97;;;2.67;;
75818;SDS011;64453;51.944;9.796;2024-02-15T09:00:34;4.40;;;4.00;;
75818;SDS011;64453;51.944;9.796;2024-02-15T09:03:04;4.77;;;4.30;;
75818;SDS011;64453;51.944;9.796;2024-02-15T09:05:32;5.00;;;4.50;;
75818;SDS011;64453;51.944;9.796;2024-02-15T09:07:59;5.40;;;4.30;;
75818;SDS011;64453;51.944;9.796;2024-02-15T09:10:27;5.10;;;4.60;;
75818;SDS011;64453;51.944;9.796;2024-02-15T09:12:55;5.60;;;5.10;;
75818;SDS011;64453;51.944;9.796;2024-02-15T09:15:22;6.00;;;4.50;;
75818;SDS011;64453;51.944;9.796;2024-02-15T09:17:51;6.70;;;4.00;;
75818;SDS011;64453;51.944;9.796;2024-02-15T09:20:21;4.07;;;3.10;;
75818;SDS011;64453;51.944;9.796;2024-02-15T09:22:51;3.83;;;3.53;;
75818;SDS011;64453;51.944;9.796;2024-02-15T09:25:19;4.47;;;4.07;;
75818;SDS011;64453;51.944;9.796;2024-02-15T09:27:50;4.00;;;3.60;;
75818;SDS011;64453;51.944;9.796;2024-02-15T09:30:19;3.97;;;3.57;;
75818;SDS011;64453;51.944;9.796;2024-02-15T09:32:49;4.10;;;3.60;;
75818;SDS011;64453;51.944;9.796;2024-02-15T09:35:17;4.87;;;3.80;;
75818;SDS011;64453;51.944;9.796;2024-02-15T09:37:46;3.77;;;3.47;;
75818;SDS011;64453;51.944;9.796;2024-02-15T09:40:14;3.63;;;3.43;;
75818;SDS011;64453;51.944;9.796;2024-02-15T09:42:43;3.63;;;3.43;;
75818;SDS011;64453;51.944;9.796;2024-02-15T09:45:11;4.73;;;4.33;;
75818;SDS011;64453;51.944;9.796;2024-02-15T09:47:39;4.67;;;3.70;;
75818;SDS011;64453;51.944;9.796;2024-02-15T09:50:09;4.10;;;3.70;;
75818;SDS011;64453;51.944;9.796;2024-02-15T09:52:38;3.70;;;3.40;;
75818;SDS011;64453;51.944;9.796;2024-02-15T09:55:08;9.57;;;3.03;;
75818;SDS011;64453;51.944;9.796;2024-02-15T09:57:38;2.87;;;2.63;;
75818;SDS011;64453;51.944;9.796;2024-02-15T10:00:07;2.60;;;2.40;;
75818;SDS011;64453;51.944;9.796;2024-02-15T10:02:38;2.93;;;2.83;;
75818;SDS011;64453;51.944;9.796;2024-02-15T10:05:08;3.03;;;2.83;;
75818;SDS011;64453;51.944;9.796;2024-02-15T10:07:36;3.10;;;2.80;;
75818;SDS011;64453;51.944;9.796;2024-02-15T10:10:15;3.33;;;2.57;;
75818;SDS011;64453;51.944;9.796;2024-02-15T10:12:45;3.07;;;2.87;;
75818;SDS011;64453;51.944;9.796;2024-02-15T10:15:33;3.77;;;3.47;;
75818;SDS011;64453;51.944;9.796;2024-02-15T10:18:01;2.50;;;2.30;;
75818;SDS011;64453;51.944;9.796;2024-02-15T10:20:31;4.27;;;2.40;;
75818;SDS011;64453;51.944;9.796;2024-02-15T10:23:08;2.20;;;2.10;;
75818;SDS011;64453;51.944;9.796;2024-02-15T10:25:38;4.10;;;2.40;;
75818;SDS011;64453;51.944;9.796;2024-02-15T10:28:06;2.50;;;2.40;;
75818;SDS011;64453;51.944;9.796;2024-02-15T10:30:34;2.30;;;1.77;;
75818;SDS011;64453;51.944;9.796;2024-02-15T10:33:03;1.97;;;1.87;;
75818;SDS011;64453;51.944;9.796;2024-02-15T10:35:31;2.20;;;2.10;;
75818;SDS011;64453;51.944;9.796;2024-02-15T10:38:08;2.50;;;2.30;;
75818;SDS011;64453;51.944;9.796;2024-02-15T10:40:40;2.50;;;2.30;;
75818;SDS011;64453;51.944;9.796;2024-02-15T10:43:08;2.07;;;1.87;;
75818;SDS011;64453;51.944;9.796;2024-02-15T10:45:38;1.73;;;1.63;;
75818;SDS011;64453;51.944;9.796;2024-02-15T10:48:07;2.20;;;1.97;;
75818;SDS011;64453;51.944;9.796;2024-02-15T10:50:34;2.10;;;1.57;;
75818;SDS011;64453;51.944;9.796;2024-02-15T10:53:04;1.80;;;1.70;;
75818;SDS011;64453;51.944;9.796;2024-02-15T10:55:48;1.87;;;1.77;;
75818;SDS011;64453;51.944;9.796;2024-02-15T10:58:20;5.73;;;1.93;;
75818;SDS011;64453;51.944;9.796;2024-02-15T11:00:51;2.50;;;1.40;;
75818;SDS011;64453;51.944;9.796;2024-02-15T11:03:23;4.90;;;1.33;;
75818;SDS011;64453;51.944;9.796;2024-02-15T11:05:52;1.97;;;1.43;;
75818;SDS011;64453;51.944;9.796;2024-02-15T11:08:21;2.30;;;1.93;;
75818;SDS011;64453;51.944;9.796;2024-02-15T11:10:49;2.03;;;1.87;;
75818;SDS011;64453;51.944;9.796;2024-02-15T11:13:18;1.57;;;1.50;;
75818;SDS011;64453;51.944;9.796;2024-02-15T11:15:46;4.47;;;2.00;;
75818;SDS011;64453;51.944;9.796;2024-02-15T11:21:11;1.87;;;1.80;;
75818;SDS011;64453;51.944;9.796;2024-02-15T11:23:38;3.47;;;1.80;;
75818;SDS011;64453;51.944;9.796;2024-02-15T11:26:09;1.57;;;1.47;;
75818;SDS011;64453;51.944;9.796;2024-02-15T11:29:08;4.13;;;1.87;;
75818;SDS011;64453;51.944;9.796;2024-02-15T11:31:55;1.67;;;1.57;;
75818;SDS011;64453;51.944;9.796;2024-02-15T11:40:18;1.77;;;1.67;;
75818;SDS011;64453;51.944;9.796;2024-02-15T11:42:49;3.30;;;1.90;;
75818;SDS011;64453;51.944;9.796;2024-02-15T11:45:18;3.27;;;1.87;;
75818;SDS011;64453;51.944;9.796;2024-02-15T11:47:49;1.97;;;1.87;;
75818;SDS011;64453;51.944;9.796;2024-02-15T11:50:21;1.50;;;1.40;;
75818;SDS011;64453;51.944;9.796;2024-02-15T11:52:50;1.40;;;1.30;;
75818;SDS011;64453;51.944;9.796;2024-02-15T11:55:18;1.30;;;1.20;;
75818;SDS011;64453;51.944;9.796;2024-02-15T11:57:58;1.80;;;1.70;;
75818;SDS011;64453;51.944;9.796;2024-02-15T12:00:29;1.50;;;1.40;;
75818;SDS011;64453;51.944;9.796;2024-02-15T12:03:15;1.63;;;1.53;;
75818;SDS011;64453;51.944;9.796;2024-02-15T12:06:01;1.40;;;1.30;;
75818;SDS011;64453;51.944;9.796;2024-02-15T12:08:46;2.83;;;1.63;;
75818;SDS011;64453;51.944;9.796;2024-02-15T12:11:46;1.40;;;1.30;;
75818;SDS011;64453;51.944;9.796;2024-02-15T12:14:39;1.80;;;1.37;;
75818;SDS011;64453;51.944;9.796;2024-02-15T12:17:23;1.50;;;1.40;;
75818;SDS011;64453;51.944;9.796;2024-02-15T12:20:09;1.90;;;1.27;;
75818;SDS011;64453;51.944;9.796;2024-02-15T12:22:39;1.67;;;1.57;;
75818;SDS011;64453;51.944;9.796;2024-02-15T12:25:12;2.37;;;1.40;;
75818;SDS011;64453;51.944;9.796;2024-02-15T12:27:41;7.30;;;1.10;;
75818;SDS011;64453;51.944;9.796;2024-02-15T12:30:14;1.70;;;1.50;;
75818;SDS011;64453;51.944;9.796;2024-02-15T12:32:45;1.67;;;1.50;;
75818;SDS011;64453;51.944;9.796;2024-02-15T12:35:14;4.03;;;1.77;;
75818;SDS011;64453;51.944;9.796;2024-02-15T12:37:44;2.03;;;1.50;;
75818;SDS011;64453;51.944;9.796;2024-02-15T12:40:12;1.80;;;1.30;;
75818;SDS011;64453;51.944;9.796;2024-02-15T12:42:42;1.70;;;1.60;;
75818;SDS011;64453;51.944;9.796;2024-02-15T12:45:18;1.60;;;1.50;;
75818;SDS011;64453;51.944;9.796;2024-02-15T12:47:47;2.57;;;1.83;;
75818;SDS011;64453;51.944;9.796;2024-02-15T12:50:15;1.73;;;1.63;;
75818;SDS011;64453;51.944;9.796;2024-02-15T12:52:44;2.17;;;2.00;;
75818;SDS011;64453;51.944;9.796;2024-02-15T12:55:16;1.77;;;1.67;;
75818;SDS011;64453;51.944;9.796;2024-02-15T12:57:46;2.40;;;2.00;;
75818;SDS011;64453;51.944;9.796;2024-02-15T13:00:19;1.60;;;1.50;;
75818;SDS011;64453;51.944;9.796;2024-02-15T13:02:49;2.07;;;1.23;;
75818;SDS011;64453;51.944;9.796;2024-02-15T13:05:18;1.40;;;1.30;;
75818;SDS011;64453;51.944;9.796;2024-02-15T13:07:47;1.50;;;1.50;;
75818;SDS011;64453;51.944;9.796;2024-02-15T13:10:14;1.33;;;1.00;;
75818;SDS011;64453;51.944;9.796;2024-02-15T13:12:42;1.43;;;1.33;;
75818;SDS011;64453;51.944;9.796;2024-02-15T13:15:10;1.40;;;1.30;;
75818;SDS011;64453;51.944;9.796;2024-02-15T13:17:42;1.27;;;1.17;;
75818;SDS011;64453;51.944;9.796;2024-02-15T13:20:10;13.33;;;1.77;;
75818;SDS011;64453;51.944;9.796;2024-02-15T13:22:39;1.23;;;1.10;;
75818;SDS011;64453;51.944;9.796;2024-02-15T13:25:13;1.83;;;1.63;;
75818;SDS011;64453;51.944;9.796;2024-02-15T13:27:41;1.80;;;1.67;;
75818;SDS011;64453;51.944;9.796;2024-02-15T13:30:10;1.60;;;1.50;;
75818;SDS011;64453;51.944;9.796;2024-02-15T13:32:38;1.50;;;1.40;;
75818;SDS011;64453;51.944;9.796;2024-02-15T13:35:08;2.77;;;1.63;;
75818;SDS011;64453;51.944;9.796;2024-02-15T13:37:42;2.30;;;1.73;;
75818;SDS011;64453;51.944;9.796;2024-02-15T13:40:10;2.10;;;1.90;;
75818;SDS011;64453;51.944;9.796;2024-02-15T13:42:41;1.90;;;1.80;;
75818;SDS011;64453;51.944;9.796;2024-02-15T13:45:16;2.07;;;1.97;;
75818;SDS011;64453;51.944;9.796;2024-02-15T13:47:46;2.93;;;2.07;;
75818;SDS011;64453;51.944;9.796;2024-02-15T13:50:17;1.83;;;1.70;;
75818;SDS011;64453;51.944;9.796;2024-02-15T13:52:44;6.30;;;1.97;;
75818;SDS011;64453;51.944;9.796;2024-02-15T13:55:13;1.93;;;1.80;;
75818;SDS011;64453;51.944;9.796;2024-02-15T13:57:42;2.53;;;1.87;;
75818;SDS011;64453;51.944;9.796;2024-02-15T14:00:12;1.80;;;1.70;;
75818;SDS011;64453;51.944;9.796;2024-02-15T14:02:46;3.50;;;2.00;;
75818;SDS011;64453;51.944;9.796;2024-02-15T14:05:14;2.07;;;1.97;;
75818;SDS011;64453;51.944;9.796;2024-02-15T14:07:47;4.20;;;1.90;;
75818;SDS011;64453;51.944;9.796;2024-02-15T14:10:15;4.40;;;1.50;;
75818;SDS011;64453;51.944;9.796;2024-02-15T14:12:46;5.67;;;1.73;;
75818;SDS011;64453;51.944;9.796;2024-02-15T14:15:14;3.57;;;2.10;;
75818;SDS011;64453;51.944;9.796;2024-02-15T14:17:42;1.60;;;1.47;;
75818;SDS011;64453;51.944;9.796;2024-02-15T14:20:11;2.80;;;2.37;;
75818;SDS011;64453;51.944;9.796;2024-02-15T14:22:39;2.23;;;2.03;;
75818;SDS011;64453;51.944;9.796;2024-02-15T14:25:08;1.37;;;1.30;;
75818;SDS011;64453;51.944;9.796;2024-02-15T14:27:37;1.90;;;1.80;;
75818;SDS011;64453;51.944;9.796;2024-02-15T14:30:05;2.27;;;2.10;;
75818;SDS011;64453;51.944;9.796;2024-02-15T14:32:51;1.77;;;1.60;;
75818;SDS011;64453;51.944;9.796;2024-02-15T14:35:29;1.73;;;1.63;;
75818;SDS011;64453;51.944;9.796;2024-02-15T14:37:59;2.03;;;1.83;;
75818;SDS011;64453;51.944;9.796;2024-02-15T14:40:39;2.50;;;2.20;;
75818;SDS011;64453;51.944;9.796;2024-02-15T14:43:09;2.97;;;2.13;;
75818;SDS011;64453;51.944;9.796;2024-02-15T14:45:38;3.90;;;1.97;;
75818;SDS011;64453;51.944;9.796;2024-02-15T14:48:06;3.47;;;2.27;;
75818;SDS011;64453;51.944;9.796;2024-02-15T14:50:35;1.97;;;1.77;;
75818;SDS011;64453;51.944;9.796;2024-02-15T14:53:02;2.00;;;1.90;;
75818;SDS011;64453;51.944;9.796;2024-02-15T14:55:29;2.20;;;1.70;;
75818;SDS011;64453;51.944;9.796;2024-02-15T14:57:57;3.17;;;1.90;;
75818;SDS011;64453;51.944;9.796;2024-02-15T15:00:24;2.17;;;2.07;;
75818;SDS011;64453;51.944;9.796;2024-02-15T15:02:52;1.80;;;1.70;;
75818;SDS011;64453;51.944;9.796;2024-02-15T15:05:22;1.70;;;1.63;;
75818;SDS011;64453;51.944;9.796;2024-02-15T15:08:07;2.00;;;1.90;;
75818;SDS011;64453;51.944;9.796;2024-02-15T15:10:56;4.47;;;2.03;;